Flight Track Log - Related Links

Times and Time Zones

All times are in EDT time to prevent confusion due to time zone crossing. See the ASQ421T flight status page for this flight to view local times or setup timezone preferences in your user account.

Time Position Orientation Groundspeed Altitude Reporting Facility
EDT Latitude Longitude Course Direction KTS MPH feet Rate Location/Type
Mon 09:38:47 PM 42.0000 -87.9500 294° West 168 193 2,000  Level Chicago TRACON
Mon 09:39:41 PM 42.0167 -88.0000 294° West 176 203 4,000 1,737 Climbing Chicago TRACON
Mon 09:40:41 PM 42.0333 -88.0667 289° West 213 245 5,300 1,415 Climbing Chicago TRACON
Mon 09:41:27 PM 42.0475 -88.1361 285° West 227 261 6,500 1,778 Climbing Chicago Center
Mon 09:42:29 PM 42.0697 -88.2286 288° West 257 296 8,500 1,659 Climbing Chicago Center
Mon 09:43:30 PM 42.0686 -88.3286 269° West 272 313 9,900 976 Climbing Chicago Center
Mon 09:44:32 PM 42.0708 -88.4433 272° West 305 351 10,500 677 Climbing Chicago Center
Mon 09:45:34 PM 42.0742 -88.5689 272° West 333 383 11,300 1,024 Climbing Chicago Center
Mon 09:46:35 PM 42.0794 -88.7317 273° West 361 415 12,600 1,171 Climbing Chicago Center
Mon 09:47:37 PM 42.0867 -88.8686 274° West 364 419 13,700 1,113 Climbing Chicago Center
Mon 09:48:39 PM 42.0911 -89.0033 273° West 360 414 14,900 1,161 Climbing Chicago Center
Mon 09:49:41 PM 42.0967 -89.1386 273° West 359 413 16,100 1,122 Climbing Chicago Center
Mon 09:50:42 PM 42.0997 -89.2725 272° West 358 412 17,200 1,073 Climbing Chicago Center
Mon 09:51:44 PM 42.1047 -89.4025 273° West 351 404 18,300 1,065 Climbing Chicago Center
Mon 09:52:46 PM 42.1072 -89.5331 272° West 347 399 19,400 1,122 Climbing Chicago Center
Mon 09:53:47 PM 42.1117 -89.6675 273° West 357 411 20,600 1,220 Climbing Chicago Center
Mon 09:54:49 PM 42.1156 -89.8197 272° West 351 404 21,900 1,073 Climbing Chicago Center
Mon 09:55:50 PM 42.1181 -89.9283 272° West 350 403 22,800 976 Climbing Chicago Center
Mon 09:56:52 PM 42.1200 -90.0872 271° West 356 410 23,900 1,016 Climbing Chicago Center
Mon 09:57:54 PM 42.1219 -90.2203 271° West 359 413 24,900 927 Climbing Chicago Center
Mon 09:58:55 PM 42.1244 -90.3525 272° West 357 411 25,800 927 Climbing Chicago Center
Mon 09:59:57 PM 42.1258 -90.4842 271° West 356 410 26,800 927 Climbing Chicago Center
Mon 10:00:58 PM 42.1281 -90.6169 271° West 358 412 27,700 927 Climbing Chicago Center
Mon 10:02:00 PM 42.1292 -90.7508 271° West 360 414 28,700 1,024 Climbing Chicago Center
Mon 10:03:01 PM 42.1317 -90.9122 271° West 362 417 29,800 1,024 Climbing Chicago Center
Mon 10:04:03 PM 42.1328 -91.0478 271° West 365 420 30,800 919 Climbing Chicago Center
Mon 10:05:05 PM 42.1336 -91.1842 271° West 367 422 31,700 1,171 Climbing Chicago Center
Mon 10:06:06 PM 42.1342 -91.3178 270° West 362 417 33,200 812 Climbing Chicago Center
Mon 10:07:55 PM 42.1536 -91.5503 277° West 363 418 34,000 282 Climbing Minneapolis Center
Mon 10:08:56 PM 42.1947 -91.6831 293° West 380 437 34,000  Level Minneapolis Center
Mon 10:09:57 PM 42.2369 -91.8228 292° West 395 455 34,000  Level Minneapolis Center
Mon 10:10:59 PM 42.2817 -91.9697 292° West 411 473 34,000  Level Minneapolis Center
Mon 10:12:15 PM 42.3433 -92.1792 292° West 429 494 34,000  Level Chicago Center
Mon 10:13:16 PM 42.3872 -92.3258 292° West 425 489 34,000  Level Chicago Center
Mon 10:14:18 PM 42.4306 -92.4722 292° West 422 486 34,000  Level Chicago Center
Mon 10:15:19 PM 42.4736 -92.6175 292° West 420 483 34,000  Level Chicago Center
Mon 10:16:21 PM 42.5153 -92.7636 291° West 419 482 34,000  Level Chicago Center
Mon 10:17:22 PM 42.5658 -92.9397 291° West 422 486 34,000  Level Chicago Center
Mon 10:18:23 PM 42.6089 -93.0894 291° West 430 495 34,000  Level Chicago Center
Mon 10:19:25 PM 42.6531 -93.2394 292° West 433 498 34,000  Level Chicago Center
Mon 10:20:26 PM 42.6944 -93.3903 291° West 430 495 34,000  Level Chicago Center
Mon 10:21:27 PM 42.7361 -93.5383 291° West 425 489 34,000  Level Chicago Center
Mon 10:22:29 PM 42.7786 -93.6869 291° West 425 489 34,000  Level Chicago Center
Mon 10:23:30 PM 42.8203 -93.8361 291° West 424 488 34,000  Level Chicago Center
Mon 10:24:31 PM 42.8681 -94.0133 290° West 421 484 34,000  Level Chicago Center
Mon 10:25:33 PM 42.9092 -94.1611 291° West 420 483 34,000  Level Chicago Center
Mon 10:26:41 PM 42.9514 -94.3092 291° West 419 482 34,000 -186 Level Minneapolis Center
Mon 10:27:42 PM 42.9994 -94.4875 290° West 423 487 33,600 -1,377 Descending Minneapolis Center
Mon 10:28:43 PM 43.0411 -94.6419 290° West 419 482 31,200 -2,410 Descending Minneapolis Center
Mon 10:29:44 PM 43.0803 -94.7894 290° West 413 475 28,700 -2,410 Descending Minneapolis Center
Mon 10:30:45 PM 43.1211 -94.9406 290° West 419 482 26,300 -2,410 Descending Minneapolis Center
Mon 10:31:46 PM 43.1614 -95.0936 290° West 425 489 23,800 -2,459 Descending Minneapolis Center
Mon 10:32:47 PM 43.2017 -95.2464 290° West 428 493 21,300 -2,390 Descending Minneapolis Center
Mon 10:33:49 PM 43.2394 -95.3925 290° West 414 476 18,900 -2,390 Descending Minneapolis Center
Mon 10:34:50 PM 43.2761 -95.5319 290° West 395 455 16,400 -2,239 Descending Minneapolis Center
Mon 10:36:03 PM 43.3125 -95.6725 290° West 392 451 13,900 -2,222 Descending Minneapolis Center
Mon 10:37:05 PM 43.3519 -95.8256 290° West 361 415 11,400 -1,707 Descending Minneapolis Center
Mon 10:38:06 PM 43.3750 -95.9164 289° West 332 382 10,400 -1,475 Descending Minneapolis Center
Mon 10:39:07 PM 43.4064 -96.0364 290° West 292 336 8,400 -1,623 Descending Minneapolis Center
Mon 10:40:08 PM 43.4364 -96.1056 301° West 277 319 7,100 -1,525 Descending Minneapolis Center
Mon 10:41:09 PM 43.4839 -96.2239 299° West 262 302 5,300 -1,230 Descending Minneapolis Center
Mon 10:42:10 PM 43.5103 -96.2903 299° West 255 293 4,600 -311 Descending Minneapolis Center
Mon 10:43:24 PM 43.5492 -96.3903 298° West 250 288 4,600 -44 Level Minneapolis Center
Mon 10:44:25 PM 43.5892 -96.4928 298° West 250 288 4,500 -448 Descending Minneapolis Center
Mon 10:45:38 PM 43.6244 -96.5767 300° West 252 290 3,600 -667 Descending Minneapolis Center
Mon 10:46:40 PM 43.6578 -96.6667 297° West 230 265 3,000 -537 Descending Minneapolis Center
Mon 10:47:41 PM 43.6339 -96.6950 221° Southwest 153 176 2,500 -590 Descending Minneapolis Center
Mon 10:48:42 PM 43.6064 -96.7208 214° Southwest 129 148 1,800 -390 Descending Minneapolis Center
Mon 10:49:44 PM 43.5786 -96.7461 213° Southwest 128 147 1,700 -97 Descending Minneapolis Center
Mon 10:51:00 PM 43.5820 -96.7419 270° West  Level Estimated
Mon 10:58:00 PM 43.5820 -96.7419 270° West  Level Estimated

Login

Don't have an account? Register now (free) for customized features, flight alerts, and more!